sensor_id;sensor_type;location;lat;lon;timestamp;P1;durP1;ratioP1;P2;durP2;ratioP2
45784;SDS011;31489;51.404;5.474;2023-12-14T00:01:14;16.58;;;11.77;;
45784;SDS011;31489;51.404;5.474;2023-12-14T00:03:40;13.07;;;10.98;;
45784;SDS011;31489;51.404;5.474;2023-12-14T00:06:07;14.23;;;11.90;;
45784;SDS011;31489;51.404;5.474;2023-12-14T00:08:33;13.38;;;11.13;;
45784;SDS011;31489;51.404;5.474;2023-12-14T00:11:03;11.52;;;9.95;;
45784;SDS011;31489;51.404;5.474;2023-12-14T00:13:29;12.38;;;10.07;;
45784;SDS011;31489;51.404;5.474;2023-12-14T00:15:55;11.95;;;10.05;;
45784;SDS011;31489;51.404;5.474;2023-12-14T00:18:21;12.18;;;10.10;;
45784;SDS011;31489;51.404;5.474;2023-12-14T00:20:46;11.30;;;9.32;;
45784;SDS011;31489;51.404;5.474;2023-12-14T00:23:13;10.77;;;8.45;;
45784;SDS011;31489;51.404;5.474;2023-12-14T00:25:38;10.15;;;9.05;;
45784;SDS011;31489;51.404;5.474;2023-12-14T00:28:04;10.27;;;9.05;;
45784;SDS011;31489;51.404;5.474;2023-12-14T00:30:30;11.40;;;9.35;;
45784;SDS011;31489;51.404;5.474;2023-12-14T00:32:55;10.93;;;8.98;;
45784;SDS011;31489;51.404;5.474;2023-12-14T00:35:21;12.75;;;8.75;;
45784;SDS011;31489;51.404;5.474;2023-12-14T00:37:46;9.82;;;8.80;;
45784;SDS011;31489;51.404;5.474;2023-12-14T00:40:12;12.82;;;9.43;;
45784;SDS011;31489;51.404;5.474;2023-12-14T00:42:38;12.77;;;9.68;;
45784;SDS011;31489;51.404;5.474;2023-12-14T00:45:03;11.60;;;9.73;;
45784;SDS011;31489;51.404;5.474;2023-12-14T00:47:29;10.43;;;9.32;;
45784;SDS011;31489;51.404;5.474;2023-12-14T00:49:55;10.73;;;9.23;;
45784;SDS011;31489;51.404;5.474;2023-12-14T00:52:20;9.50;;;7.38;;
45784;SDS011;31489;51.404;5.474;2023-12-14T00:54:46;9.57;;;8.48;;
45784;SDS011;31489;51.404;5.474;2023-12-14T00:57:12;8.57;;;7.68;;
45784;SDS011;31489;51.404;5.474;2023-12-14T00:59:37;13.40;;;9.55;;
45784;SDS011;31489;51.404;5.474;2023-12-14T01:02:03;12.27;;;9.63;;
45784;SDS011;31489;51.404;5.474;2023-12-14T01:04:29;12.60;;;9.38;;
45784;SDS011;31489;51.404;5.474;2023-12-14T01:06:54;10.25;;;9.07;;
45784;SDS011;31489;51.404;5.474;2023-12-14T01:09:20;12.93;;;10.43;;
45784;SDS011;31489;51.404;5.474;2023-12-14T01:11:45;12.07;;;10.77;;
45784;SDS011;31489;51.404;5.474;2023-12-14T01:14:11;13.70;;;11.02;;
45784;SDS011;31489;51.404;5.474;2023-12-14T01:16:37;14.90;;;11.80;;
45784;SDS011;31489;51.404;5.474;2023-12-14T01:19:03;13.27;;;11.65;;
45784;SDS011;31489;51.404;5.474;2023-12-14T01:21:30;13.48;;;11.00;;
45784;SDS011;31489;51.404;5.474;2023-12-14T01:23:56;14.38;;;12.30;;
45784;SDS011;31489;51.404;5.474;2023-12-14T01:26:22;16.83;;;12.95;;
45784;SDS011;31489;51.404;5.474;2023-12-14T01:28:48;16.83;;;13.13;;
45784;SDS011;31489;51.404;5.474;2023-12-14T01:31:13;17.35;;;13.98;;
45784;SDS011;31489;51.404;5.474;2023-12-14T01:33:39;16.77;;;14.18;;
45784;SDS011;31489;51.404;5.474;2023-12-14T01:36:05;18.92;;;13.95;;
45784;SDS011;31489;51.404;5.474;2023-12-14T01:38:30;22.33;;;15.65;;
45784;SDS011;31489;51.404;5.474;2023-12-14T01:40:56;19.02;;;15.13;;
45784;SDS011;31489;51.404;5.474;2023-12-14T01:43:22;16.85;;;13.43;;
45784;SDS011;31489;51.404;5.474;2023-12-14T01:45:47;19.23;;;15.02;;
45784;SDS011;31489;51.404;5.474;2023-12-14T01:48:13;18.05;;;14.15;;
45784;SDS011;31489;51.404;5.474;2023-12-14T01:50:39;18.23;;;14.18;;
45784;SDS011;31489;51.404;5.474;2023-12-14T01:53:04;20.05;;;13.95;;
45784;SDS011;31489;51.404;5.474;2023-12-14T01:55:30;16.15;;;12.77;;
45784;SDS011;31489;51.404;5.474;2023-12-14T01:57:55;18.95;;;14.50;;
45784;SDS011;31489;51.404;5.474;2023-12-14T02:00:36;18.40;;;14.50;;
45784;SDS011;31489;51.404;5.474;2023-12-14T02:03:05;16.48;;;12.15;;
45784;SDS011;31489;51.404;5.474;2023-12-14T02:05:31;17.55;;;13.02;;
45784;SDS011;31489;51.404;5.474;2023-12-14T02:07:57;16.05;;;12.82;;
45784;SDS011;31489;51.404;5.474;2023-12-14T02:10:23;16.67;;;11.77;;
45784;SDS011;31489;51.404;5.474;2023-12-14T02:12:49;14.13;;;12.13;;
45784;SDS011;31489;51.404;5.474;2023-12-14T02:15:14;19.65;;;12.10;;
45784;SDS011;31489;51.404;5.474;2023-12-14T02:17:40;15.32;;;11.35;;
45784;SDS011;31489;51.404;5.474;2023-12-14T02:20:06;13.98;;;11.52;;
45784;SDS011;31489;51.404;5.474;2023-12-14T02:22:34;14.05;;;11.35;;
45784;SDS011;31489;51.404;5.474;2023-12-14T02:25:16;16.48;;;12.30;;
45784;SDS011;31489;51.404;5.474;2023-12-14T02:27:42;16.30;;;11.23;;
45784;SDS011;31489;51.404;5.474;2023-12-14T02:30:08;14.13;;;11.80;;
45784;SDS011;31489;51.404;5.474;2023-12-14T02:32:34;14.75;;;11.45;;
45784;SDS011;31489;51.404;5.474;2023-12-14T02:34:59;13.40;;;10.73;;
45784;SDS011;31489;51.404;5.474;2023-12-14T02:37:25;13.00;;;10.55;;
45784;SDS011;31489;51.404;5.474;2023-12-14T02:39:50;12.52;;;10.38;;
45784;SDS011;31489;51.404;5.474;2023-12-14T02:42:18;14.27;;;10.98;;
45784;SDS011;31489;51.404;5.474;2023-12-14T02:44:44;12.55;;;10.50;;
45784;SDS011;31489;51.404;5.474;2023-12-14T02:47:09;13.48;;;10.27;;
45784;SDS011;31489;51.404;5.474;2023-12-14T02:49:35;11.88;;;10.07;;
45784;SDS011;31489;51.404;5.474;2023-12-14T02:52:00;13.18;;;9.95;;
45784;SDS011;31489;51.404;5.474;2023-12-14T02:54:26;13.20;;;10.52;;
45784;SDS011;31489;51.404;5.474;2023-12-14T02:56:52;12.80;;;10.07;;
45784;SDS011;31489;51.404;5.474;2023-12-14T02:59:17;12.50;;;10.50;;
45784;SDS011;31489;51.404;5.474;2023-12-14T03:01:43;12.98;;;10.43;;
45784;SDS011;31489;51.404;5.474;2023-12-14T03:04:08;10.95;;;9.55;;
45784;SDS011;31489;51.404;5.474;2023-12-14T03:06:34;13.05;;;10.50;;
45784;SDS011;31489;51.404;5.474;2023-12-14T03:09:00;14.75;;;10.57;;
45784;SDS011;31489;51.404;5.474;2023-12-14T03:11:25;12.43;;;10.50;;
45784;SDS011;31489;51.404;5.474;2023-12-14T03:13:51;12.52;;;10.40;;
45784;SDS011;31489;51.404;5.474;2023-12-14T03:16:18;16.30;;;10.55;;
45784;SDS011;31489;51.404;5.474;2023-12-14T03:18:44;14.85;;;12.23;;
45784;SDS011;31489;51.404;5.474;2023-12-14T03:21:09;13.27;;;10.52;;
45784;SDS011;31489;51.404;5.474;2023-12-14T03:23:35;15.57;;;11.98;;
45784;SDS011;31489;51.404;5.474;2023-12-14T03:26:01;15.30;;;12.50;;
45784;SDS011;31489;51.404;5.474;2023-12-14T03:28:27;15.20;;;11.43;;
45784;SDS011;31489;51.404;5.474;2023-12-14T03:30:53;13.73;;;11.57;;
45784;SDS011;31489;51.404;5.474;2023-12-14T03:33:18;15.75;;;11.32;;
45784;SDS011;31489;51.404;5.474;2023-12-14T03:35:44;14.05;;;11.75;;
45784;SDS011;31489;51.404;5.474;2023-12-14T03:38:11;14.45;;;11.82;;
45784;SDS011;31489;51.404;5.474;2023-12-14T03:40:40;15.55;;;11.77;;
45784;SDS011;31489;51.404;5.474;2023-12-14T03:43:05;16.05;;;12.48;;
45784;SDS011;31489;51.404;5.474;2023-12-14T03:45:31;14.45;;;11.60;;
45784;SDS011;31489;51.404;5.474;2023-12-14T03:47:56;15.15;;;11.45;;
45784;SDS011;31489;51.404;5.474;2023-12-14T03:50:22;13.70;;;10.27;;
45784;SDS011;31489;51.404;5.474;2023-12-14T03:52:48;14.70;;;11.95;;
45784;SDS011;31489;51.404;5.474;2023-12-14T03:55:14;15.98;;;11.02;;
45784;SDS011;31489;51.404;5.474;2023-12-14T03:57:40;12.25;;;10.48;;
45784;SDS011;31489;51.404;5.474;2023-12-14T04:00:10;12.20;;;10.30;;
45784;SDS011;31489;51.404;5.474;2023-12-14T04:02:36;15.00;;;11.07;;
45784;SDS011;31489;51.404;5.474;2023-12-14T04:05:02;12.95;;;10.80;;
45784;SDS011;31489;51.404;5.474;2023-12-14T04:07:28;14.50;;;11.05;;
45784;SDS011;31489;51.404;5.474;2023-12-14T04:09:53;13.63;;;10.40;;
45784;SDS011;31489;51.404;5.474;2023-12-14T04:12:19;14.75;;;10.98;;
45784;SDS011;31489;51.404;5.474;2023-12-14T04:14:45;13.07;;;11.68;;
45784;SDS011;31489;51.404;5.474;2023-12-14T04:17:11;12.77;;;10.63;;
45784;SDS011;31489;51.404;5.474;2023-12-14T04:19:40;13.98;;;10.45;;
45784;SDS011;31489;51.404;5.474;2023-12-14T04:22:06;14.25;;;11.30;;
45784;SDS011;31489;51.404;5.474;2023-12-14T04:24:32;15.15;;;11.55;;
45784;SDS011;31489;51.404;5.474;2023-12-14T04:26:58;13.90;;;11.02;;
45784;SDS011;31489;51.404;5.474;2023-12-14T04:29:24;13.15;;;11.45;;
45784;SDS011;31489;51.404;5.474;2023-12-14T04:31:50;13.50;;;10.85;;
45784;SDS011;31489;51.404;5.474;2023-12-14T04:34:15;16.33;;;11.25;;
45784;SDS011;31489;51.404;5.474;2023-12-14T04:36:44;12.10;;;10.70;;
45784;SDS011;31489;51.404;5.474;2023-12-14T04:39:10;13.20;;;11.13;;
45784;SDS011;31489;51.404;5.474;2023-12-14T04:41:36;14.18;;;11.07;;
45784;SDS011;31489;51.404;5.474;2023-12-14T04:44:02;12.13;;;10.70;;
45784;SDS011;31489;51.404;5.474;2023-12-14T04:46:28;14.35;;;11.05;;
45784;SDS011;31489;51.404;5.474;2023-12-14T04:48:54;14.38;;;11.57;;
45784;SDS011;31489;51.404;5.474;2023-12-14T04:51:20;14.25;;;11.90;;
45784;SDS011;31489;51.404;5.474;2023-12-14T04:53:45;15.00;;;11.80;;
45784;SDS011;31489;51.404;5.474;2023-12-14T04:56:11;12.80;;;11.10;;
45784;SDS011;31489;51.404;5.474;2023-12-14T04:58:41;13.65;;;10.85;;
45784;SDS011;31489;51.404;5.474;2023-12-14T05:01:07;13.20;;;10.85;;
45784;SDS011;31489;51.404;5.474;2023-12-14T05:03:33;14.73;;;11.88;;
45784;SDS011;31489;51.404;5.474;2023-12-14T05:06:02;14.95;;;12.15;;
45784;SDS011;31489;51.404;5.474;2023-12-14T05:08:27;13.82;;;11.73;;
45784;SDS011;31489;51.404;5.474;2023-12-14T05:10:53;13.80;;;11.68;;
45784;SDS011;31489;51.404;5.474;2023-12-14T05:13:19;14.93;;;11.15;;
45784;SDS011;31489;51.404;5.474;2023-12-14T05:15:44;14.52;;;12.00;;
45784;SDS011;31489;51.404;5.474;2023-12-14T05:18:10;13.27;;;10.75;;
45784;SDS011;31489;51.404;5.474;2023-12-14T05:20:35;13.45;;;11.20;;
45784;SDS011;31489;51.404;5.474;2023-12-14T05:23:01;13.27;;;11.27;;
45784;SDS011;31489;51.404;5.474;2023-12-14T05:25:27;12.68;;;10.43;;
45784;SDS011;31489;51.404;5.474;2023-12-14T05:27:53;13.00;;;10.35;;
45784;SDS011;31489;51.404;5.474;2023-12-14T05:30:19;12.15;;;10.73;;
45784;SDS011;31489;51.404;5.474;2023-12-14T05:32:44;12.25;;;9.88;;
45784;SDS011;31489;51.404;5.474;2023-12-14T05:35:10;13.02;;;10.93;;
45784;SDS011;31489;51.404;5.474;2023-12-14T05:37:38;11.10;;;9.88;;
45784;SDS011;31489;51.404;5.474;2023-12-14T05:40:06;14.48;;;11.75;;
45784;SDS011;31489;51.404;5.474;2023-12-14T05:42:34;13.48;;;11.77;;
45784;SDS011;31489;51.404;5.474;2023-12-14T05:45:00;13.30;;;11.75;;
45784;SDS011;31489;51.404;5.474;2023-12-14T05:47:26;14.15;;;11.73;;
45784;SDS011;31489;51.404;5.474;2023-12-14T05:49:52;12.77;;;11.20;;
45784;SDS011;31489;51.404;5.474;2023-12-14T05:52:18;14.63;;;11.65;;
45784;SDS011;31489;51.404;5.474;2023-12-14T05:54:43;24.73;;;19.20;;
45784;SDS011;31489;51.404;5.474;2023-12-14T05:57:09;16.17;;;13.15;;
45784;SDS011;31489;51.404;5.474;2023-12-14T05:59:38;13.32;;;11.55;;
45784;SDS011;31489;51.404;5.474;2023-12-14T06:02:04;13.40;;;11.48;;
45784;SDS011;31489;51.404;5.474;2023-12-14T06:04:30;13.50;;;11.43;;
45784;SDS011;31489;51.404;5.474;2023-12-14T06:06:55;12.38;;;10.98;;
45784;SDS011;31489;51.404;5.474;2023-12-14T06:09:21;11.50;;;10.18;;
45784;SDS011;31489;51.404;5.474;2023-12-14T06:11:51;12.13;;;10.82;;
45784;SDS011;31489;51.404;5.474;2023-12-14T06:14:17;13.20;;;10.50;;
45784;SDS011;31489;51.404;5.474;2023-12-14T06:16:43;11.80;;;10.60;;
45784;SDS011;31489;51.404;5.474;2023-12-14T06:19:08;13.32;;;11.27;;
45784;SDS011;31489;51.404;5.474;2023-12-14T06:21:34;13.38;;;11.50;;
45784;SDS011;31489;51.404;5.474;2023-12-14T06:23:59;12.20;;;10.90;;
45784;SDS011;31489;51.404;5.474;2023-12-14T06:26:26;13.57;;;12.02;;
45784;SDS011;31489;51.404;5.474;2023-12-14T06:28:51;13.50;;;11.55;;
45784;SDS011;31489;51.404;5.474;2023-12-14T06:31:17;13.50;;;11.48;;
45784;SDS011;31489;51.404;5.474;2023-12-14T06:33:46;13.00;;;10.90;;
45784;SDS011;31489;51.404;5.474;2023-12-14T06:36:13;13.73;;;11.57;;
45784;SDS011;31489;51.404;5.474;2023-12-14T06:38:42;13.38;;;11.60;;
45784;SDS011;31489;51.404;5.474;2023-12-14T06:41:07;13.02;;;11.60;;
45784;SDS011;31489;51.404;5.474;2023-12-14T06:43:34;13.15;;;11.63;;
45784;SDS011;31489;51.404;5.474;2023-12-14T06:45:59;12.52;;;11.15;;
45784;SDS011;31489;51.404;5.474;2023-12-14T06:48:25;13.82;;;11.18;;
45784;SDS011;31489;51.404;5.474;2023-12-14T06:50:51;13.88;;;11.95;;
45784;SDS011;31489;51.404;5.474;2023-12-14T06:53:19;12.27;;;10.95;;
45784;SDS011;31489;51.404;5.474;2023-12-14T06:55:45;12.68;;;10.95;;
45784;SDS011;31489;51.404;5.474;2023-12-14T06:58:10;12.15;;;10.70;;
45784;SDS011;31489;51.404;5.474;2023-12-14T07:00:39;13.05;;;11.70;;
45784;SDS011;31489;51.404;5.474;2023-12-14T07:03:05;12.52;;;10.60;;
45784;SDS011;31489;51.404;5.474;2023-12-14T07:05:31;12.73;;;11.25;;
45784;SDS011;31489;51.404;5.474;2023-12-14T07:07:58;12.38;;;10.85;;
45784;SDS011;31489;51.404;5.474;2023-12-14T07:10:26;13.50;;;10.68;;
45784;SDS011;31489;51.404;5.474;2023-12-14T07:12:52;13.48;;;10.55;;
45784;SDS011;31489;51.404;5.474;2023-12-14T07:15:17;12.50;;;10.40;;
45784;SDS011;31489;51.404;5.474;2023-12-14T07:17:43;13.13;;;11.52;;
45784;SDS011;31489;51.404;5.474;2023-12-14T07:20:09;14.18;;;11.60;;
45784;SDS011;31489;51.404;5.474;2023-12-14T07:22:36;16.15;;;12.15;;
45784;SDS011;31489;51.404;5.474;2023-12-14T07:25:02;11.68;;;10.48;;
45784;SDS011;31489;51.404;5.474;2023-12-14T07:27:28;13.80;;;11.80;;
45784;SDS011;31489;51.404;5.474;2023-12-14T07:29:54;14.00;;;11.02;;
45784;SDS011;31489;51.404;5.474;2023-12-14T07:32:19;13.18;;;10.68;;
45784;SDS011;31489;51.404;5.474;2023-12-14T07:34:46;13.55;;;11.50;;
45784;SDS011;31489;51.404;5.474;2023-12-14T07:37:12;19.10;;;12.55;;
45784;SDS011;31489;51.404;5.474;2023-12-14T07:39:37;17.75;;;12.98;;
45784;SDS011;31489;51.404;5.474;2023-12-14T07:42:03;16.77;;;12.48;;
45784;SDS011;31489;51.404;5.474;2023-12-14T07:44:30;20.42;;;13.32;;
45784;SDS011;31489;51.404;5.474;2023-12-14T07:46:56;19.42;;;12.73;;
45784;SDS011;31489;51.404;5.474;2023-12-14T07:49:23;21.17;;;14.15;;
45784;SDS011;31489;51.404;5.474;2023-12-14T07:51:49;21.50;;;13.98;;
45784;SDS011;31489;51.404;5.474;2023-12-14T07:54:14;20.25;;;13.20;;
45784;SDS011;31489;51.404;5.474;2023-12-14T07:56:40;19.80;;;14.00;;
45784;SDS011;31489;51.404;5.474;2023-12-14T07:59:06;20.42;;;12.85;;
45784;SDS011;31489;51.404;5.474;2023-12-14T08:01:32;17.83;;;12.50;;
45784;SDS011;31489;51.404;5.474;2023-12-14T08:04:02;20.23;;;12.50;;
45784;SDS011;31489;51.404;5.474;2023-12-14T08:06:28;21.30;;;12.80;;
45784;SDS011;31489;51.404;5.474;2023-12-14T08:08:54;16.00;;;12.63;;
45784;SDS011;31489;51.404;5.474;2023-12-14T08:11:23;19.23;;;13.07;;
45784;SDS011;31489;51.404;5.474;2023-12-14T08:13:48;17.48;;;12.13;;
45784;SDS011;31489;51.404;5.474;2023-12-14T08:16:14;20.80;;;13.57;;
45784;SDS011;31489;51.404;5.474;2023-12-14T08:18:42;15.27;;;11.85;;
45784;SDS011;31489;51.404;5.474;2023-12-14T08:21:09;16.33;;;12.05;;
45784;SDS011;31489;51.404;5.474;2023-12-14T08:23:35;17.67;;;11.82;;
45784;SDS011;31489;51.404;5.474;2023-12-14T08:26:01;19.90;;;13.43;;
45784;SDS011;31489;51.404;5.474;2023-12-14T08:28:26;18.58;;;12.82;;
45784;SDS011;31489;51.404;5.474;2023-12-14T08:30:52;17.05;;;12.60;;
45784;SDS011;31489;51.404;5.474;2023-12-14T08:33:18;18.42;;;11.73;;
45784;SDS011;31489;51.404;5.474;2023-12-14T08:35:43;17.85;;;12.38;;
45784;SDS011;31489;51.404;5.474;2023-12-14T08:38:09;20.00;;;12.77;;
45784;SDS011;31489;51.404;5.474;2023-12-14T08:40:36;15.95;;;10.75;;
45784;SDS011;31489;51.404;5.474;2023-12-14T08:43:02;16.05;;;10.55;;
45784;SDS011;31489;51.404;5.474;2023-12-14T08:45:28;17.15;;;11.60;;
45784;SDS011;31489;51.404;5.474;2023-12-14T08:47:53;16.38;;;9.60;;
45784;SDS011;31489;51.404;5.474;2023-12-14T08:50:19;15.07;;;10.27;;
45784;SDS011;31489;51.404;5.474;2023-12-14T08:52:45;14.00;;;9.40;;
45784;SDS011;31489;51.404;5.474;2023-12-14T08:55:11;16.40;;;10.52;;
45784;SDS011;31489;51.404;5.474;2023-12-14T08:57:36;14.85;;;9.93;;
45784;SDS011;31489;51.404;5.474;2023-12-14T09:00:02;14.43;;;9.73;;
45784;SDS011;31489;51.404;5.474;2023-12-14T09:02:29;12.75;;;9.43;;
45784;SDS011;31489;51.404;5.474;2023-12-14T09:04:55;12.30;;;9.52;;
45784;SDS011;31489;51.404;5.474;2023-12-14T09:07:20;10.02;;;8.57;;
45784;SDS011;31489;51.404;5.474;2023-12-14T09:09:46;11.85;;;8.90;;
45784;SDS011;31489;51.404;5.474;2023-12-14T09:12:12;12.68;;;9.27;;
45784;SDS011;31489;51.404;5.474;2023-12-14T09:14:37;13.63;;;10.18;;
45784;SDS011;31489;51.404;5.474;2023-12-14T09:17:03;13.77;;;9.13;;
45784;SDS011;31489;51.404;5.474;2023-12-14T09:19:29;11.50;;;8.45;;
45784;SDS011;31489;51.404;5.474;2023-12-14T09:21:56;10.43;;;8.55;;
45784;SDS011;31489;51.404;5.474;2023-12-14T09:24:22;11.40;;;9.27;;
45784;SDS011;31489;51.404;5.474;2023-12-14T09:26:48;11.82;;;9.10;;
45784;SDS011;31489;51.404;5.474;2023-12-14T09:29:16;11.15;;;8.70;;
45784;SDS011;31489;51.404;5.474;2023-12-14T09:31:42;12.63;;;8.90;;
45784;SDS011;31489;51.404;5.474;2023-12-14T09:34:09;12.88;;;9.75;;
45784;SDS011;31489;51.404;5.474;2023-12-14T09:36:36;12.60;;;9.90;;
45784;SDS011;31489;51.404;5.474;2023-12-14T09:39:02;10.38;;;8.40;;
45784;SDS011;31489;51.404;5.474;2023-12-14T09:41:28;11.23;;;8.52;;
45784;SDS011;31489;51.404;5.474;2023-12-14T09:43:54;11.25;;;8.90;;
45784;SDS011;31489;51.404;5.474;2023-12-14T09:46:20;10.27;;;9.13;;
45784;SDS011;31489;51.404;5.474;2023-12-14T09:48:47;12.30;;;8.88;;
45784;SDS011;31489;51.404;5.474;2023-12-14T09:51:14;11.63;;;8.18;;
45784;SDS011;31489;51.404;5.474;2023-12-14T09:53:41;10.15;;;8.77;;
45784;SDS011;31489;51.404;5.474;2023-12-14T09:56:07;12.90;;;8.13;;
45784;SDS011;31489;51.404;5.474;2023-12-14T09:58:33;10.02;;;7.95;;
45784;SDS011;31489;51.404;5.474;2023-12-14T10:00:59;11.13;;;8.23;;
45784;SDS011;31489;51.404;5.474;2023-12-14T10:03:29;8.90;;;7.97;;
45784;SDS011;31489;51.404;5.474;2023-12-14T10:05:57;10.93;;;7.90;;
45784;SDS011;31489;51.404;5.474;2023-12-14T10:08:23;9.38;;;7.93;;
45784;SDS011;31489;51.404;5.474;2023-12-14T10:10:51;11.68;;;8.65;;
45784;SDS011;31489;51.404;5.474;2023-12-14T10:13:22;8.98;;;7.78;;
45784;SDS011;31489;51.404;5.474;2023-12-14T10:16:03;8.40;;;7.47;;
45784;SDS011;31489;51.404;5.474;2023-12-14T10:18:29;8.45;;;7.38;;
45784;SDS011;31489;51.404;5.474;2023-12-14T10:20:59;8.55;;;7.15;;
45784;SDS011;31489;51.404;5.474;2023-12-14T10:23:24;8.23;;;7.43;;
45784;SDS011;31489;51.404;5.474;2023-12-14T10:25:53;10.02;;;6.82;;
45784;SDS011;31489;51.404;5.474;2023-12-14T10:28:18;9.05;;;7.47;;
45784;SDS011;31489;51.404;5.474;2023-12-14T10:30:44;8.88;;;7.57;;
45784;SDS011;31489;51.404;5.474;2023-12-14T10:33:10;9.32;;;7.70;;
45784;SDS011;31489;51.404;5.474;2023-12-14T10:35:35;9.63;;;7.50;;
45784;SDS011;31489;51.404;5.474;2023-12-14T10:38:02;10.55;;;7.65;;
45784;SDS011;31489;51.404;5.474;2023-12-14T10:40:34;9.15;;;7.65;;
45784;SDS011;31489;51.404;5.474;2023-12-14T10:43:05;10.35;;;7.90;;
45784;SDS011;31489;51.404;5.474;2023-12-14T10:45:31;8.23;;;7.18;;
45784;SDS011;31489;51.404;5.474;2023-12-14T10:47:58;10.43;;;7.28;;
45784;SDS011;31489;51.404;5.474;2023-12-14T10:50:26;12.32;;;7.03;;
45784;SDS011;31489;51.404;5.474;2023-12-14T10:52:54;8.75;;;7.85;;
45784;SDS011;31489;51.404;5.474;2023-12-14T10:58:04;10.23;;;7.30;;
45784;SDS011;31489;51.404;5.474;2023-12-14T11:00:30;9.60;;;7.13;;
45784;SDS011;31489;51.404;5.474;2023-12-14T11:02:58;11.15;;;7.45;;
45784;SDS011;31489;51.404;5.474;2023-12-14T11:05:27;9.15;;;7.47;;
45784;SDS011;31489;51.404;5.474;2023-12-14T11:10:36;9.30;;;7.13;;
45784;SDS011;31489;51.404;5.474;2023-12-14T11:13:06;9.65;;;7.63;;
45784;SDS011;31489;51.404;5.474;2023-12-14T11:15:36;8.95;;;7.80;;
45784;SDS011;31489;51.404;5.474;2023-12-14T11:20:55;9.57;;;7.50;;
45784;SDS011;31489;51.404;5.474;2023-12-14T11:25:51;9.80;;;7.22;;
45784;SDS011;31489;51.404;5.474;2023-12-14T11:28:24;9.93;;;8.10;;
45784;SDS011;31489;51.404;5.474;2023-12-14T11:30:50;9.63;;;7.47;;
45784;SDS011;31489;51.404;5.474;2023-12-14T11:33:16;9.27;;;7.03;;
45784;SDS011;31489;51.404;5.474;2023-12-14T11:35:41;9.30;;;7.57;;
45784;SDS011;31489;51.404;5.474;2023-12-14T11:38:07;9.25;;;7.75;;
45784;SDS011;31489;51.404;5.474;2023-12-14T11:40:38;17.35;;;7.38;;
45784;SDS011;31489;51.404;5.474;2023-12-14T11:43:05;9.18;;;7.65;;
45784;SDS011;31489;51.404;5.474;2023-12-14T11:45:38;11.60;;;7.53;;
45784;SDS011;31489;51.404;5.474;2023-12-14T11:48:08;9.90;;;7.20;;
45784;SDS011;31489;51.404;5.474;2023-12-14T11:50:36;10.52;;;7.65;;
45784;SDS011;31489;51.404;5.474;2023-12-14T11:53:06;10.52;;;7.68;;
45784;SDS011;31489;51.404;5.474;2023-12-14T11:55:34;10.95;;;7.60;;
45784;SDS011;31489;51.404;5.474;2023-12-14T11:58:00;9.48;;;7.57;;
45784;SDS011;31489;51.404;5.474;2023-12-14T12:00:28;8.57;;;7.38;;
45784;SDS011;31489;51.404;5.474;2023-12-14T12:05:46;7.60;;;6.45;;
45784;SDS011;31489;51.404;5.474;2023-12-14T12:08:13;7.20;;;5.72;;
45784;SDS011;31489;51.404;5.474;2023-12-14T12:10:40;8.15;;;6.28;;
45784;SDS011;31489;51.404;5.474;2023-12-14T12:13:07;7.72;;;6.45;;
45784;SDS011;31489;51.404;5.474;2023-12-14T12:15:37;8.63;;;6.22;;
45784;SDS011;31489;51.404;5.474;2023-12-14T12:18:05;7.07;;;5.70;;
45784;SDS011;31489;51.404;5.474;2023-12-14T12:20:31;7.47;;;6.22;;
45784;SDS011;31489;51.404;5.474;2023-12-14T12:22:57;6.97;;;5.80;;
45784;SDS011;31489;51.404;5.474;2023-12-14T12:25:23;8.23;;;6.65;;
45784;SDS011;31489;51.404;5.474;2023-12-14T12:27:49;6.68;;;5.95;;
45784;SDS011;31489;51.404;5.474;2023-12-14T12:30:14;6.82;;;6.10;;
45784;SDS011;31489;51.404;5.474;2023-12-14T12:32:41;7.07;;;6.28;;
45784;SDS011;31489;51.404;5.474;2023-12-14T12:35:07;7.80;;;6.18;;
45784;SDS011;31489;51.404;5.474;2023-12-14T12:37:33;6.60;;;5.90;;
45784;SDS011;31489;51.404;5.474;2023-12-14T12:39:59;11.07;;;8.63;;
45784;SDS011;31489;51.404;5.474;2023-12-14T12:42:24;23.63;;;18.15;;
45784;SDS011;31489;51.404;5.474;2023-12-14T12:44:50;10.85;;;9.05;;
45784;SDS011;31489;51.404;5.474;2023-12-14T12:47:16;8.38;;;7.45;;
45784;SDS011;31489;51.404;5.474;2023-12-14T12:49:42;9.20;;;6.68;;
45784;SDS011;31489;51.404;5.474;2023-12-14T12:52:08;8.82;;;6.45;;
45784;SDS011;31489;51.404;5.474;2023-12-14T12:54:34;8.35;;;6.20;;
45784;SDS011;31489;51.404;5.474;2023-12-14T12:57:00;6.75;;;5.85;;
45784;SDS011;31489;51.404;5.474;2023-12-14T12:59:26;6.70;;;5.90;;
45784;SDS011;31489;51.404;5.474;2023-12-14T13:01:51;7.80;;;6.05;;
45784;SDS011;31489;51.404;5.474;2023-12-14T13:04:18;6.70;;;6.00;;
45784;SDS011;31489;51.404;5.474;2023-12-14T13:06:48;6.88;;;6.20;;
45784;SDS011;31489;51.404;5.474;2023-12-14T13:09:15;8.15;;;5.82;;
45784;SDS011;31489;51.404;5.474;2023-12-14T13:11:41;6.85;;;5.68;;
45784;SDS011;31489;51.404;5.474;2023-12-14T13:14:08;8.27;;;5.95;;
45784;SDS011;31489;51.404;5.474;2023-12-14T13:16:34;8.85;;;6.40;;
45784;SDS011;31489;51.404;5.474;2023-12-14T13:19:00;12.20;;;9.05;;
45784;SDS011;31489;51.404;5.474;2023-12-14T13:21:25;12.15;;;9.45;;
45784;SDS011;31489;51.404;5.474;2023-12-14T13:23:51;9.15;;;7.18;;
45784;SDS011;31489;51.404;5.474;2023-12-14T13:26:18;7.82;;;6.30;;
45784;SDS011;31489;51.404;5.474;2023-12-14T13:28:43;8.27;;;6.88;;
45784;SDS011;31489;51.404;5.474;2023-12-14T13:31:09;8.10;;;6.75;;
45784;SDS011;31489;51.404;5.474;2023-12-14T13:33:35;11.73;;;6.80;;
45784;SDS011;31489;51.404;5.474;2023-12-14T13:36:01;8.38;;;6.60;;
45784;SDS011;31489;51.404;5.474;2023-12-14T13:38:26;7.65;;;6.70;;
45784;SDS011;31489;51.404;5.474;2023-12-14T13:40:52;8.82;;;6.53;;
45784;SDS011;31489;51.404;5.474;2023-12-14T13:43:17;10.50;;;7.18;;
45784;SDS011;31489;51.404;5.474;2023-12-14T13:45:43;9.00;;;7.03;;
45784;SDS011;31489;51.404;5.474;2023-12-14T13:48:08;7.55;;;6.75;;
45784;SDS011;31489;51.404;5.474;2023-12-14T13:50:34;7.85;;;6.78;;
45784;SDS011;31489;51.404;5.474;2023-12-14T13:53:01;7.78;;;6.32;;
45784;SDS011;31489;51.404;5.474;2023-12-14T13:55:27;7.50;;;6.68;;
45784;SDS011;31489;51.404;5.474;2023-12-14T13:57:52;11.90;;;7.70;;
45784;SDS011;31489;51.404;5.474;2023-12-14T14:00:18;8.73;;;7.25;;
45784;SDS011;31489;51.404;5.474;2023-12-14T14:02:44;8.77;;;7.10;;
45784;SDS011;31489;51.404;5.474;2023-12-14T14:05:10;8.90;;;7.50;;
45784;SDS011;31489;51.404;5.474;2023-12-14T14:07:36;8.43;;;7.53;;
45784;SDS011;31489;51.404;5.474;2023-12-14T14:10:01;8.10;;;7.30;;
45784;SDS011;31489;51.404;5.474;2023-12-14T14:12:27;9.07;;;7.00;;
45784;SDS011;31489;51.404;5.474;2023-12-14T14:14:53;9.75;;;7.45;;
45784;SDS011;31489;51.404;5.474;2023-12-14T14:17:18;8.00;;;7.20;;
45784;SDS011;31489;51.404;5.474;2023-12-14T14:19:44;8.18;;;6.75;;
45784;SDS011;31489;51.404;5.474;2023-12-14T14:22:09;8.35;;;6.80;;
45784;SDS011;31489;51.404;5.474;2023-12-14T14:24:35;7.72;;;6.93;;
45784;SDS011;31489;51.404;5.474;2023-12-14T14:27:01;9.23;;;6.75;;
45784;SDS011;31489;51.404;5.474;2023-12-14T14:29:26;8.15;;;6.85;;
45784;SDS011;31489;51.404;5.474;2023-12-14T14:31:52;10.95;;;7.32;;
45784;SDS011;31489;51.404;5.474;2023-12-14T14:34:18;8.48;;;7.00;;
45784;SDS011;31489;51.404;5.474;2023-12-14T14:36:43;8.52;;;7.03;;
45784;SDS011;31489;51.404;5.474;2023-12-14T14:39:10;8.55;;;7.43;;